sensor_id;sensor_type;location;lat;lon;timestamp;P1;durP1;ratioP1;P2;durP2;ratioP2
46116;SDS011;32591;48.102;11.772;2023-06-24T00:01:15;6.97;;;3.17;;
46116;SDS011;32591;48.102;11.772;2023-06-24T00:03:42;4.03;;;3.00;;
46116;SDS011;32591;48.102;11.772;2023-06-24T00:06:12;4.18;;;2.53;;
46116;SDS011;32591;48.102;11.772;2023-06-24T00:08:43;4.80;;;2.95;;
46116;SDS011;32591;48.102;11.772;2023-06-24T00:11:11;5.45;;;3.08;;
46116;SDS011;32591;48.102;11.772;2023-06-24T00:13:39;4.75;;;2.88;;
46116;SDS011;32591;48.102;11.772;2023-06-24T00:16:06;6.93;;;3.50;;
46116;SDS011;32591;48.102;11.772;2023-06-24T00:18:33;4.18;;;2.78;;
46116;SDS011;32591;48.102;11.772;2023-06-24T00:21:00;4.97;;;2.78;;
46116;SDS011;32591;48.102;11.772;2023-06-24T00:23:28;3.72;;;2.50;;
46116;SDS011;32591;48.102;11.772;2023-06-24T00:25:59;5.75;;;3.10;;
46116;SDS011;32591;48.102;11.772;2023-06-24T00:28:28;5.05;;;2.92;;
46116;SDS011;32591;48.102;11.772;2023-06-24T00:30:55;4.80;;;2.85;;
46116;SDS011;32591;48.102;11.772;2023-06-24T00:33:21;5.18;;;3.33;;
46116;SDS011;32591;48.102;11.772;2023-06-24T00:35:48;4.97;;;2.97;;
46116;SDS011;32591;48.102;11.772;2023-06-24T00:38:15;4.28;;;2.78;;
46116;SDS011;32591;48.102;11.772;2023-06-24T00:40:42;4.82;;;2.88;;
46116;SDS011;32591;48.102;11.772;2023-06-24T00:43:11;3.90;;;2.63;;
46116;SDS011;32591;48.102;11.772;2023-06-24T00:45:39;3.92;;;2.45;;
46116;SDS011;32591;48.102;11.772;2023-06-24T00:48:07;3.35;;;2.47;;
46116;SDS011;32591;48.102;11.772;2023-06-24T00:50:34;4.25;;;2.65;;
46116;SDS011;32591;48.102;11.772;2023-06-24T00:53:02;4.50;;;2.55;;
46116;SDS011;32591;48.102;11.772;2023-06-24T00:55:29;5.13;;;2.88;;
46116;SDS011;32591;48.102;11.772;2023-06-24T00:57:56;5.38;;;3.15;;
46116;SDS011;32591;48.102;11.772;2023-06-24T01:00:25;4.20;;;2.65;;
46116;SDS011;32591;48.102;11.772;2023-06-24T01:02:53;4.45;;;2.83;;
46116;SDS011;32591;48.102;11.772;2023-06-24T01:05:22;4.15;;;2.55;;
46116;SDS011;32591;48.102;11.772;2023-06-24T01:07:50;6.15;;;3.17;;
46116;SDS011;32591;48.102;11.772;2023-06-24T01:10:21;4.32;;;3.05;;
46116;SDS011;32591;48.102;11.772;2023-06-24T01:12:50;4.57;;;2.80;;
46116;SDS011;32591;48.102;11.772;2023-06-24T01:15:17;5.30;;;2.67;;
46116;SDS011;32591;48.102;11.772;2023-06-24T01:17:48;4.22;;;2.60;;
46116;SDS011;32591;48.102;11.772;2023-06-24T01:20:25;6.22;;;3.05;;
46116;SDS011;32591;48.102;11.772;2023-06-24T01:26:19;4.53;;;3.08;;
46116;SDS011;32591;48.102;11.772;2023-06-24T01:29:40;4.63;;;2.70;;
46116;SDS011;32591;48.102;11.772;2023-06-24T01:32:22;4.20;;;2.70;;
46116;SDS011;32591;48.102;11.772;2023-06-24T01:34:56;5.00;;;2.50;;
46116;SDS011;32591;48.102;11.772;2023-06-24T01:37:28;3.72;;;2.60;;
46116;SDS011;32591;48.102;11.772;2023-06-24T01:40:02;5.65;;;2.88;;
46116;SDS011;32591;48.102;11.772;2023-06-24T01:42:35;4.22;;;2.70;;
46116;SDS011;32591;48.102;11.772;2023-06-24T01:45:06;3.97;;;2.70;;
46116;SDS011;32591;48.102;11.772;2023-06-24T01:47:40;4.05;;;2.33;;
46116;SDS011;32591;48.102;11.772;2023-06-24T01:50:12;3.95;;;2.67;;
46116;SDS011;32591;48.102;11.772;2023-06-24T01:52:43;5.53;;;2.92;;
46116;SDS011;32591;48.102;11.772;2023-06-24T01:55:12;4.03;;;2.67;;
46116;SDS011;32591;48.102;11.772;2023-06-24T01:57:45;4.47;;;2.97;;
46116;SDS011;32591;48.102;11.772;2023-06-24T02:00:15;4.38;;;2.80;;
46116;SDS011;32591;48.102;11.772;2023-06-24T02:02:45;3.83;;;2.75;;
46116;SDS011;32591;48.102;11.772;2023-06-24T02:05:13;3.40;;;2.15;;
46116;SDS011;32591;48.102;11.772;2023-06-24T02:07:42;3.90;;;2.75;;
46116;SDS011;32591;48.102;11.772;2023-06-24T02:10:11;4.90;;;3.08;;
46116;SDS011;32591;48.102;11.772;2023-06-24T02:12:39;5.03;;;2.75;;
46116;SDS011;32591;48.102;11.772;2023-06-24T02:15:07;4.03;;;2.95;;
46116;SDS011;32591;48.102;11.772;2023-06-24T02:17:35;3.63;;;2.47;;
46116;SDS011;32591;48.102;11.772;2023-06-24T02:20:06;3.95;;;2.80;;
46116;SDS011;32591;48.102;11.772;2023-06-24T02:22:35;5.10;;;2.95;;
46116;SDS011;32591;48.102;11.772;2023-06-24T02:25:05;4.35;;;2.63;;
46116;SDS011;32591;48.102;11.772;2023-06-24T02:27:35;3.78;;;2.60;;
46116;SDS011;32591;48.102;11.772;2023-06-24T02:30:03;3.60;;;2.53;;
46116;SDS011;32591;48.102;11.772;2023-06-24T02:32:32;4.60;;;2.88;;
46116;SDS011;32591;48.102;11.772;2023-06-24T02:35:01;3.63;;;2.70;;
46116;SDS011;32591;48.102;11.772;2023-06-24T02:37:30;3.92;;;2.83;;
46116;SDS011;32591;48.102;11.772;2023-06-24T02:39:57;3.80;;;2.50;;
46116;SDS011;32591;48.102;11.772;2023-06-24T02:42:25;5.10;;;3.80;;
46116;SDS011;32591;48.102;11.772;2023-06-24T02:44:52;4.50;;;3.20;;
46116;SDS011;32591;48.102;11.772;2023-06-24T02:47:19;4.18;;;2.85;;
46116;SDS011;32591;48.102;11.772;2023-06-24T02:49:48;4.97;;;3.20;;
46116;SDS011;32591;48.102;11.772;2023-06-24T02:52:16;4.75;;;3.05;;
46116;SDS011;32591;48.102;11.772;2023-06-24T02:54:44;5.07;;;3.13;;
46116;SDS011;32591;48.102;11.772;2023-06-24T02:57:12;6.30;;;3.20;;
46116;SDS011;32591;48.102;11.772;2023-06-24T02:59:41;4.68;;;3.13;;
46116;SDS011;32591;48.102;11.772;2023-06-24T03:02:08;5.05;;;2.97;;
46116;SDS011;32591;48.102;11.772;2023-06-24T03:04:35;4.80;;;3.22;;
46116;SDS011;32591;48.102;11.772;2023-06-24T03:07:03;4.82;;;3.05;;
46116;SDS011;32591;48.102;11.772;2023-06-24T03:09:33;6.00;;;3.03;;
46116;SDS011;32591;48.102;11.772;2023-06-24T03:12:02;4.22;;;3.10;;
46116;SDS011;32591;48.102;11.772;2023-06-24T03:14:32;4.40;;;2.33;;
46116;SDS011;32591;48.102;11.772;2023-06-24T03:16:59;5.05;;;3.10;;
46116;SDS011;32591;48.102;11.772;2023-06-24T03:19:25;5.07;;;3.00;;
46116;SDS011;32591;48.102;11.772;2023-06-24T03:21:53;3.88;;;2.80;;
46116;SDS011;32591;48.102;11.772;2023-06-24T03:24:20;4.32;;;3.10;;
46116;SDS011;32591;48.102;11.772;2023-06-24T03:26:47;4.20;;;2.90;;
46116;SDS011;32591;48.102;11.772;2023-06-24T03:29:17;5.93;;;3.13;;
46116;SDS011;32591;48.102;11.772;2023-06-24T03:31:43;4.72;;;2.92;;
46116;SDS011;32591;48.102;11.772;2023-06-24T03:34:11;5.32;;;3.08;;
46116;SDS011;32591;48.102;11.772;2023-06-24T03:36:38;3.85;;;2.70;;
46116;SDS011;32591;48.102;11.772;2023-06-24T03:39:05;3.83;;;2.60;;
46116;SDS011;32591;48.102;11.772;2023-06-24T03:41:32;4.75;;;3.15;;
46116;SDS011;32591;48.102;11.772;2023-06-24T03:43:59;5.05;;;2.85;;
46116;SDS011;32591;48.102;11.772;2023-06-24T03:46:28;4.28;;;2.90;;
46116;SDS011;32591;48.102;11.772;2023-06-24T03:48:58;3.97;;;2.90;;
46116;SDS011;32591;48.102;11.772;2023-06-24T03:51:25;5.47;;;3.38;;
46116;SDS011;32591;48.102;11.772;2023-06-24T03:53:53;5.35;;;3.00;;
46116;SDS011;32591;48.102;11.772;2023-06-24T03:56:19;6.53;;;3.58;;
46116;SDS011;32591;48.102;11.772;2023-06-24T03:58:46;4.30;;;3.00;;
46116;SDS011;32591;48.102;11.772;2023-06-24T04:01:13;5.07;;;2.92;;
46116;SDS011;32591;48.102;11.772;2023-06-24T04:03:45;5.72;;;3.22;;
46116;SDS011;32591;48.102;11.772;2023-06-24T04:06:12;7.15;;;3.03;;
46116;SDS011;32591;48.102;11.772;2023-06-24T04:08:39;6.40;;;3.53;;
46116;SDS011;32591;48.102;11.772;2023-06-24T04:11:08;4.88;;;3.30;;
46116;SDS011;32591;48.102;11.772;2023-06-24T04:13:36;4.85;;;3.58;;
46116;SDS011;32591;48.102;11.772;2023-06-24T04:16:03;5.13;;;3.03;;
46116;SDS011;32591;48.102;11.772;2023-06-24T04:18:30;4.25;;;3.00;;
46116;SDS011;32591;48.102;11.772;2023-06-24T04:21:00;3.85;;;2.97;;
46116;SDS011;32591;48.102;11.772;2023-06-24T04:23:27;3.90;;;2.80;;
46116;SDS011;32591;48.102;11.772;2023-06-24T04:25:54;5.07;;;2.88;;
46116;SDS011;32591;48.102;11.772;2023-06-24T04:28:20;5.43;;;3.00;;
46116;SDS011;32591;48.102;11.772;2023-06-24T04:30:47;4.32;;;3.25;;
46116;SDS011;32591;48.102;11.772;2023-06-24T04:33:14;3.47;;;2.40;;
46116;SDS011;32591;48.102;11.772;2023-06-24T04:35:42;5.78;;;3.80;;
46116;SDS011;32591;48.102;11.772;2023-06-24T04:38:11;4.55;;;2.90;;
46116;SDS011;32591;48.102;11.772;2023-06-24T04:40:43;4.53;;;3.03;;
46116;SDS011;32591;48.102;11.772;2023-06-24T04:43:10;5.55;;;3.25;;
46116;SDS011;32591;48.102;11.772;2023-06-24T04:45:37;4.78;;;2.85;;
46116;SDS011;32591;48.102;11.772;2023-06-24T04:48:04;5.07;;;2.88;;
46116;SDS011;32591;48.102;11.772;2023-06-24T04:50:32;5.22;;;3.70;;
46116;SDS011;32591;48.102;11.772;2023-06-24T04:52:59;5.05;;;4.00;;
46116;SDS011;32591;48.102;11.772;2023-06-24T04:55:28;4.50;;;3.22;;
46116;SDS011;32591;48.102;11.772;2023-06-24T04:57:56;5.57;;;3.20;;
46116;SDS011;32591;48.102;11.772;2023-06-24T05:00:23;4.75;;;2.92;;
46116;SDS011;32591;48.102;11.772;2023-06-24T05:02:50;5.18;;;2.97;;
46116;SDS011;32591;48.102;11.772;2023-06-24T05:05:17;5.32;;;3.70;;
46116;SDS011;32591;48.102;11.772;2023-06-24T05:07:45;4.68;;;3.25;;
46116;SDS011;32591;48.102;11.772;2023-06-24T05:10:12;5.28;;;3.78;;
46116;SDS011;32591;48.102;11.772;2023-06-24T05:12:41;4.45;;;3.15;;
46116;SDS011;32591;48.102;11.772;2023-06-24T05:15:08;6.10;;;3.42;;
46116;SDS011;32591;48.102;11.772;2023-06-24T05:17:36;4.63;;;3.10;;
46116;SDS011;32591;48.102;11.772;2023-06-24T05:20:03;4.72;;;3.15;;
46116;SDS011;32591;48.102;11.772;2023-06-24T05:22:31;5.97;;;3.40;;
46116;SDS011;32591;48.102;11.772;2023-06-24T05:24:58;5.28;;;3.85;;
46116;SDS011;32591;48.102;11.772;2023-06-24T05:27:25;5.85;;;3.38;;
46116;SDS011;32591;48.102;11.772;2023-06-24T05:29:53;6.25;;;3.45;;
46116;SDS011;32591;48.102;11.772;2023-06-24T05:32:21;4.95;;;3.17;;
46116;SDS011;32591;48.102;11.772;2023-06-24T05:34:48;4.75;;;3.65;;
46116;SDS011;32591;48.102;11.772;2023-06-24T05:37:14;4.50;;;2.95;;
46116;SDS011;32591;48.102;11.772;2023-06-24T05:39:41;4.47;;;3.13;;
46116;SDS011;32591;48.102;11.772;2023-06-24T05:42:08;5.50;;;3.10;;
46116;SDS011;32591;48.102;11.772;2023-06-24T05:44:35;4.88;;;3.15;;
46116;SDS011;32591;48.102;11.772;2023-06-24T05:47:04;5.63;;;3.85;;
46116;SDS011;32591;48.102;11.772;2023-06-24T05:49:31;4.82;;;3.00;;
46116;SDS011;32591;48.102;11.772;2023-06-24T05:51:58;5.35;;;3.00;;
46116;SDS011;32591;48.102;11.772;2023-06-24T05:54:25;4.80;;;3.47;;
46116;SDS011;32591;48.102;11.772;2023-06-24T05:56:52;4.85;;;3.00;;
46116;SDS011;32591;48.102;11.772;2023-06-24T05:59:19;4.72;;;3.03;;
46116;SDS011;32591;48.102;11.772;2023-06-24T06:01:46;6.32;;;2.80;;
46116;SDS011;32591;48.102;11.772;2023-06-24T06:04:14;7.82;;;3.42;;
46116;SDS011;32591;48.102;11.772;2023-06-24T06:06:41;4.15;;;3.13;;
46116;SDS011;32591;48.102;11.772;2023-06-24T06:09:08;6.75;;;2.90;;
46116;SDS011;32591;48.102;11.772;2023-06-24T06:11:35;4.40;;;3.20;;
46116;SDS011;32591;48.102;11.772;2023-06-24T06:14:02;6.43;;;3.30;;
46116;SDS011;32591;48.102;11.772;2023-06-24T06:16:29;4.40;;;3.00;;
46116;SDS011;32591;48.102;11.772;2023-06-24T06:18:56;4.43;;;3.17;;
46116;SDS011;32591;48.102;11.772;2023-06-24T06:21:25;4.30;;;3.00;;
46116;SDS011;32591;48.102;11.772;2023-06-24T06:23:52;4.22;;;2.95;;
46116;SDS011;32591;48.102;11.772;2023-06-24T06:26:19;5.93;;;2.60;;
46116;SDS011;32591;48.102;11.772;2023-06-24T06:28:45;4.57;;;3.08;;
46116;SDS011;32591;48.102;11.772;2023-06-24T06:31:13;4.93;;;3.83;;
46116;SDS011;32591;48.102;11.772;2023-06-24T06:33:40;3.78;;;2.78;;
46116;SDS011;32591;48.102;11.772;2023-06-24T06:36:07;4.60;;;2.97;;
46116;SDS011;32591;48.102;11.772;2023-06-24T06:38:35;5.82;;;3.17;;
46116;SDS011;32591;48.102;11.772;2023-06-24T06:41:02;4.50;;;2.70;;
46116;SDS011;32591;48.102;11.772;2023-06-24T06:43:29;3.85;;;2.60;;
46116;SDS011;32591;48.102;11.772;2023-06-24T06:45:56;4.55;;;2.80;;
46116;SDS011;32591;48.102;11.772;2023-06-24T06:48:23;3.58;;;2.47;;
46116;SDS011;32591;48.102;11.772;2023-06-24T06:50:50;3.67;;;2.70;;
46116;SDS011;32591;48.102;11.772;2023-06-24T06:53:18;3.97;;;2.85;;
46116;SDS011;32591;48.102;11.772;2023-06-24T06:55:46;3.60;;;2.53;;
46116;SDS011;32591;48.102;11.772;2023-06-24T06:58:13;5.25;;;3.00;;
46116;SDS011;32591;48.102;11.772;2023-06-24T07:00:40;4.28;;;2.97;;
46116;SDS011;32591;48.102;11.772;2023-06-24T07:03:07;7.22;;;3.30;;
46116;SDS011;32591;48.102;11.772;2023-06-24T07:05:34;5.15;;;2.75;;
46116;SDS011;32591;48.102;11.772;2023-06-24T07:08:01;4.38;;;3.13;;
46116;SDS011;32591;48.102;11.772;2023-06-24T07:10:28;6.50;;;3.38;;
46116;SDS011;32591;48.102;11.772;2023-06-24T07:12:57;4.80;;;3.15;;
46116;SDS011;32591;48.102;11.772;2023-06-24T07:15:24;4.60;;;3.00;;
46116;SDS011;32591;48.102;11.772;2023-06-24T07:17:51;5.55;;;2.90;;
46116;SDS011;32591;48.102;11.772;2023-06-24T07:20:18;4.75;;;2.65;;
46116;SDS011;32591;48.102;11.772;2023-06-24T07:22:46;4.32;;;3.00;;
46116;SDS011;32591;48.102;11.772;2023-06-24T07:25:13;3.67;;;2.50;;
46116;SDS011;32591;48.102;11.772;2023-06-24T07:27:40;3.58;;;2.63;;
46116;SDS011;32591;48.102;11.772;2023-06-24T07:30:09;3.15;;;2.13;;
46116;SDS011;32591;48.102;11.772;2023-06-24T07:32:36;3.28;;;2.30;;
46116;SDS011;32591;48.102;11.772;2023-06-24T07:35:04;4.70;;;2.80;;
46116;SDS011;32591;48.102;11.772;2023-06-24T07:37:32;3.60;;;2.47;;
46116;SDS011;32591;48.102;11.772;2023-06-24T07:40:00;5.10;;;2.65;;
46116;SDS011;32591;48.102;11.772;2023-06-24T07:42:28;3.25;;;2.45;;
46116;SDS011;32591;48.102;11.772;2023-06-24T07:44:55;3.10;;;2.10;;
46116;SDS011;32591;48.102;11.772;2023-06-24T07:47:23;5.22;;;2.17;;
46116;SDS011;32591;48.102;11.772;2023-06-24T07:49:51;2.63;;;1.85;;
46116;SDS011;32591;48.102;11.772;2023-06-24T07:52:18;3.78;;;2.55;;
46116;SDS011;32591;48.102;11.772;2023-06-24T07:54:44;4.47;;;2.03;;
46116;SDS011;32591;48.102;11.772;2023-06-24T07:57:11;5.80;;;2.47;;
46116;SDS011;32591;48.102;11.772;2023-06-24T07:59:38;5.05;;;2.53;;
46116;SDS011;32591;48.102;11.772;2023-06-24T08:02:05;4.22;;;1.83;;
46116;SDS011;32591;48.102;11.772;2023-06-24T08:04:34;4.10;;;2.50;;
46116;SDS011;32591;48.102;11.772;2023-06-24T08:07:02;3.35;;;2.42;;
46116;SDS011;32591;48.102;11.772;2023-06-24T08:09:29;4.72;;;2.28;;
46116;SDS011;32591;48.102;11.772;2023-06-24T08:11:56;4.47;;;2.17;;
46116;SDS011;32591;48.102;11.772;2023-06-24T08:18:23;3.10;;;2.28;;
46116;SDS011;32591;48.102;11.772;2023-06-24T08:20:52;3.42;;;2.30;;
46116;SDS011;32591;48.102;11.772;2023-06-24T08:23:19;5.35;;;3.38;;
46116;SDS011;32591;48.102;11.772;2023-06-24T08:25:45;3.13;;;2.25;;
46116;SDS011;32591;48.102;11.772;2023-06-24T08:28:12;4.28;;;2.55;;
46116;SDS011;32591;48.102;11.772;2023-06-24T08:30:39;3.50;;;2.67;;
46116;SDS011;32591;48.102;11.772;2023-06-24T08:33:06;3.50;;;2.30;;
46116;SDS011;32591;48.102;11.772;2023-06-24T08:35:33;4.32;;;2.47;;
46116;SDS011;32591;48.102;11.772;2023-06-24T08:38:02;4.30;;;2.75;;
46116;SDS011;32591;48.102;11.772;2023-06-24T08:40:29;4.28;;;2.65;;
46116;SDS011;32591;48.102;11.772;2023-06-24T08:42:56;3.88;;;2.90;;
46116;SDS011;32591;48.102;11.772;2023-06-24T08:45:23;3.72;;;2.55;;
46116;SDS011;32591;48.102;11.772;2023-06-24T08:47:51;4.43;;;2.80;;
46116;SDS011;32591;48.102;11.772;2023-06-24T08:50:21;5.53;;;2.88;;
46116;SDS011;32591;48.102;11.772;2023-06-24T08:52:53;6.78;;;2.97;;
46116;SDS011;32591;48.102;11.772;2023-06-24T08:55:23;4.85;;;3.10;;
46116;SDS011;32591;48.102;11.772;2023-06-24T08:57:52;3.75;;;2.53;;
46116;SDS011;32591;48.102;11.772;2023-06-24T09:00:19;4.50;;;2.88;;
46116;SDS011;32591;48.102;11.772;2023-06-24T09:02:47;4.15;;;3.17;;
46116;SDS011;32591;48.102;11.772;2023-06-24T09:05:14;4.70;;;3.58;;
46116;SDS011;32591;48.102;11.772;2023-06-24T09:07:41;5.03;;;3.65;;
46116;SDS011;32591;48.102;11.772;2023-06-24T09:10:08;4.53;;;3.55;;
46116;SDS011;32591;48.102;11.772;2023-06-24T09:12:37;6.38;;;3.75;;
46116;SDS011;32591;48.102;11.772;2023-06-24T09:15:04;4.97;;;3.00;;
46116;SDS011;32591;48.102;11.772;2023-06-24T09:17:32;3.72;;;2.80;;
46116;SDS011;32591;48.102;11.772;2023-06-24T09:20:08;4.55;;;3.10;;
46116;SDS011;32591;48.102;11.772;2023-06-24T09:22:38;6.07;;;3.50;;
46116;SDS011;32591;48.102;11.772;2023-06-24T09:25:07;5.18;;;3.50;;
46116;SDS011;32591;48.102;11.772;2023-06-24T09:27:34;5.30;;;3.67;;
46116;SDS011;32591;48.102;11.772;2023-06-24T09:30:02;4.95;;;3.30;;
46116;SDS011;32591;48.102;11.772;2023-06-24T09:32:45;4.95;;;3.65;;
46116;SDS011;32591;48.102;11.772;2023-06-24T09:35:12;6.60;;;3.67;;
46116;SDS011;32591;48.102;11.772;2023-06-24T09:37:39;5.53;;;3.70;;
46116;SDS011;32591;48.102;11.772;2023-06-24T09:40:07;5.82;;;4.03;;
46116;SDS011;32591;48.102;11.772;2023-06-24T09:42:35;5.70;;;3.92;;
46116;SDS011;32591;48.102;11.772;2023-06-24T09:45:07;5.20;;;4.13;;
46116;SDS011;32591;48.102;11.772;2023-06-24T09:47:35;6.32;;;4.07;;
46116;SDS011;32591;48.102;11.772;2023-06-24T09:50:02;6.13;;;4.43;;
46116;SDS011;32591;48.102;11.772;2023-06-24T09:52:30;5.40;;;3.78;;
46116;SDS011;32591;48.102;11.772;2023-06-24T09:55:00;5.82;;;3.83;;
46116;SDS011;32591;48.102;11.772;2023-06-24T09:57:29;5.40;;;4.03;;
46116;SDS011;32591;48.102;11.772;2023-06-24T09:59:58;6.72;;;4.00;;
46116;SDS011;32591;48.102;11.772;2023-06-24T10:02:27;5.85;;;4.03;;
46116;SDS011;32591;48.102;11.772;2023-06-24T10:04:56;5.03;;;3.38;;
46116;SDS011;32591;48.102;11.772;2023-06-24T10:07:24;5.00;;;3.60;;
46116;SDS011;32591;48.102;11.772;2023-06-24T10:09:52;6.50;;;3.67;;
46116;SDS011;32591;48.102;11.772;2023-06-24T10:12:19;7.00;;;4.13;;
46116;SDS011;32591;48.102;11.772;2023-06-24T10:14:46;4.65;;;3.40;;
46116;SDS011;32591;48.102;11.772;2023-06-24T10:17:13;4.80;;;3.30;;
46116;SDS011;32591;48.102;11.772;2023-06-24T10:19:42;5.55;;;3.25;;
46116;SDS011;32591;48.102;11.772;2023-06-24T10:22:11;6.90;;;3.90;;
46116;SDS011;32591;48.102;11.772;2023-06-24T10:24:39;5.85;;;3.80;;
46116;SDS011;32591;48.102;11.772;2023-06-24T10:27:13;6.22;;;3.67;;
46116;SDS011;32591;48.102;11.772;2023-06-24T10:29:44;4.70;;;3.65;;
46116;SDS011;32591;48.102;11.772;2023-06-24T10:32:12;5.55;;;3.88;;
46116;SDS011;32591;48.102;11.772;2023-06-24T10:34:40;5.75;;;3.63;;
46116;SDS011;32591;48.102;11.772;2023-06-24T10:37:13;4.93;;;3.92;;
46116;SDS011;32591;48.102;11.772;2023-06-24T10:39:45;4.90;;;3.75;;
46116;SDS011;32591;48.102;11.772;2023-06-24T10:45:13;3.70;;;2.78;;
46116;SDS011;32591;48.102;11.772;2023-06-24T10:47:44;6.18;;;3.95;;
46116;SDS011;32591;48.102;11.772;2023-06-24T10:50:14;3.83;;;3.00;;
46116;SDS011;32591;48.102;11.772;2023-06-24T10:52:45;4.00;;;3.10;;
46116;SDS011;32591;48.102;11.772;2023-06-24T10:55:13;6.13;;;3.40;;
46116;SDS011;32591;48.102;11.772;2023-06-24T10:57:43;5.18;;;3.13;;
46116;SDS011;32591;48.102;11.772;2023-06-24T11:00:11;3.38;;;2.50;;
46116;SDS011;32591;48.102;11.772;2023-06-24T11:02:40;4.57;;;3.08;;
46116;SDS011;32591;48.102;11.772;2023-06-24T11:05:07;4.57;;;2.55;;
46116;SDS011;32591;48.102;11.772;2023-06-24T11:07:37;5.20;;;2.78;;
46116;SDS011;32591;48.102;11.772;2023-06-24T11:10:05;3.67;;;3.00;;
46116;SDS011;32591;48.102;11.772;2023-06-24T11:12:34;4.13;;;2.53;;
46116;SDS011;32591;48.102;11.772;2023-06-24T11:15:02;4.15;;;3.00;;
46116;SDS011;32591;48.102;11.772;2023-06-24T11:17:32;4.05;;;3.15;;
46116;SDS011;32591;48.102;11.772;2023-06-24T11:20:00;3.50;;;2.60;;
46116;SDS011;32591;48.102;11.772;2023-06-24T11:22:31;5.05;;;3.25;;
46116;SDS011;32591;48.102;11.772;2023-06-24T11:24:59;4.57;;;3.15;;
46116;SDS011;32591;48.102;11.772;2023-06-24T11:27:27;4.95;;;3.08;;
46116;SDS011;32591;48.102;11.772;2023-06-24T11:29:55;4.75;;;3.40;;
46116;SDS011;32591;48.102;11.772;2023-06-24T11:32:34;4.32;;;3.30;;
46116;SDS011;32591;48.102;11.772;2023-06-24T11:35:02;4.40;;;2.90;;
46116;SDS011;32591;48.102;11.772;2023-06-24T11:37:31;4.53;;;3.25;;
46116;SDS011;32591;48.102;11.772;2023-06-24T11:40:03;3.50;;;2.50;;
46116;SDS011;32591;48.102;11.772;2023-06-24T11:42:33;4.70;;;3.00;;
46116;SDS011;32591;48.102;11.772;2023-06-24T11:45:02;3.42;;;2.75;;
46116;SDS011;32591;48.102;11.772;2023-06-24T11:47:32;4.55;;;3.50;;
46116;SDS011;32591;48.102;11.772;2023-06-24T11:50:00;6.40;;;3.35;;
46116;SDS011;32591;48.102;11.772;2023-06-24T11:52:41;5.40;;;3.45;;
46116;SDS011;32591;48.102;11.772;2023-06-24T11:55:15;4.75;;;3.72;;
46116;SDS011;32591;48.102;11.772;2023-06-24T11:57:48;6.20;;;3.70;;
46116;SDS011;32591;48.102;11.772;2023-06-24T12:00:17;4.22;;;3.47;;
46116;SDS011;32591;48.102;11.772;2023-06-24T12:02:55;4.32;;;3.03;;
46116;SDS011;32591;48.102;11.772;2023-06-24T12:05:24;5.28;;;3.53;;
46116;SDS011;32591;48.102;11.772;2023-06-24T12:07:57;5.40;;;3.30;;
46116;SDS011;32591;48.102;11.772;2023-06-24T12:10:28;4.30;;;3.20;;
46116;SDS011;32591;48.102;11.772;2023-06-24T12:12:57;5.47;;;3.55;;
46116;SDS011;32591;48.102;11.772;2023-06-24T12:15:24;5.50;;;3.65;;
46116;SDS011;32591;48.102;11.772;2023-06-24T12:17:52;5.57;;;3.85;;
46116;SDS011;32591;48.102;11.772;2023-06-24T12:20:19;4.10;;;3.67;;
46116;SDS011;32591;48.102;11.772;2023-06-24T12:22:47;4.18;;;3.08;;
46116;SDS011;32591;48.102;11.772;2023-06-24T12:25:15;4.78;;;3.78;;
46116;SDS011;32591;48.102;11.772;2023-06-24T12:27:44;5.10;;;3.63;;
46116;SDS011;32591;48.102;11.772;2023-06-24T12:30:12;4.63;;;3.55;;
46116;SDS011;32591;48.102;11.772;2023-06-24T12:32:41;3.40;;;2.65;;
46116;SDS011;32591;48.102;11.772;2023-06-24T12:35:08;5.70;;;3.22;;
46116;SDS011;32591;48.102;11.772;2023-06-24T12:37:35;4.70;;;3.45;;
46116;SDS011;32591;48.102;11.772;2023-06-24T12:40:03;5.18;;;3.55;;
46116;SDS011;32591;48.102;11.772;2023-06-24T12:42:32;5.38;;;3.45;;
46116;SDS011;32591;48.102;11.772;2023-06-24T12:45:00;4.95;;;3.40;;
46116;SDS011;32591;48.102;11.772;2023-06-24T12:47:27;5.35;;;3.33;;
46116;SDS011;32591;48.102;11.772;2023-06-24T12:49:54;7.78;;;3.53;;
46116;SDS011;32591;48.102;11.772;2023-06-24T12:52:21;4.53;;;3.22;;
46116;SDS011;32591;48.102;11.772;2023-06-24T12:54:48;4.80;;;3.28;;
46116;SDS011;32591;48.102;11.772;2023-06-24T12:57:15;5.40;;;3.53;;
46116;SDS011;32591;48.102;11.772;2023-06-24T12:59:42;3.90;;;3.28;;
46116;SDS011;32591;48.102;11.772;2023-06-24T13:02:10;4.63;;;3.78;;
46116;SDS011;32591;48.102;11.772;2023-06-24T13:04:37;6.38;;;4.13;;
46116;SDS011;32591;48.102;11.772;2023-06-24T13:07:05;5.00;;;3.38;;
46116;SDS011;32591;48.102;11.772;2023-06-24T13:09:32;5.38;;;4.20;;
46116;SDS011;32591;48.102;11.772;2023-06-24T13:11:59;6.65;;;4.68;;
46116;SDS011;32591;48.102;11.772;2023-06-24T13:14:26;6.68;;;4.57;;
46116;SDS011;32591;48.102;11.772;2023-06-24T13:16:53;5.65;;;4.20;;
46116;SDS011;32591;48.102;11.772;2023-06-24T13:19:22;4.88;;;3.60;;
46116;SDS011;32591;48.102;11.772;2023-06-24T13:21:49;5.82;;;4.13;;
46116;SDS011;32591;48.102;11.772;2023-06-24T13:24:16;5.15;;;3.85;;
46116;SDS011;32591;48.102;11.772;2023-06-24T13:26:43;5.45;;;3.58;;
46116;SDS011;32591;48.102;11.772;2023-06-24T13:29:10;5.63;;;3.70;;
46116;SDS011;32591;48.102;11.772;2023-06-24T13:31:37;4.75;;;3.67;;
46116;SDS011;32591;48.102;11.772;2023-06-24T13:34:04;5.05;;;3.92;;
46116;SDS011;32591;48.102;11.772;2023-06-24T13:36:33;5.28;;;3.92;;
46116;SDS011;32591;48.102;11.772;2023-06-24T13:39:02;5.78;;;4.15;;
46116;SDS011;32591;48.102;11.772;2023-06-24T13:41:30;5.78;;;3.55;;
46116;SDS011;32591;48.102;11.772;2023-06-24T13:43:58;4.43;;;3.47;;
46116;SDS011;32591;48.102;11.772;2023-06-24T13:46:26;7.15;;;3.95;;
46116;SDS011;32591;48.102;11.772;2023-06-24T13:48:53;5.60;;;4.30;;
46116;SDS011;32591;48.102;11.772;2023-06-24T13:51:21;5.65;;;4.03;;
46116;SDS011;32591;48.102;11.772;2023-06-24T13:53:50;6.70;;;4.53;;
46116;SDS011;32591;48.102;11.772;2023-06-24T13:56:20;5.50;;;3.67;;
46116;SDS011;32591;48.102;11.772;2023-06-24T13:58:49;5.75;;;4.55;;
46116;SDS011;32591;48.102;11.772;2023-06-24T14:01:17;5.57;;;3.83;;
46116;SDS011;32591;48.102;11.772;2023-06-24T14:03:44;5.25;;;3.83;;
46116;SDS011;32591;48.102;11.772;2023-06-24T14:06:13;4.65;;;3.80;;
46116;SDS011;32591;48.102;11.772;2023-06-24T14:08:40;4.00;;;2.78;;
46116;SDS011;32591;48.102;11.772;2023-06-24T14:11:09;5.35;;;3.22;;
46116;SDS011;32591;48.102;11.772;2023-06-24T14:13:37;4.95;;;3.15;;
46116;SDS011;32591;48.102;11.772;2023-06-24T14:16:04;4.47;;;3.40;;
46116;SDS011;32591;48.102;11.772;2023-06-24T14:18:31;5.18;;;2.97;;
46116;SDS011;32591;48.102;11.772;2023-06-24T14:20:59;5.53;;;3.42;;
46116;SDS011;32591;48.102;11.772;2023-06-24T14:23:28;5.72;;;3.90;;
46116;SDS011;32591;48.102;11.772;2023-06-24T14:25:56;6.38;;;3.58;;
46116;SDS011;32591;48.102;11.772;2023-06-24T14:28:26;4.50;;;3.45;;
46116;SDS011;32591;48.102;11.772;2023-06-24T14:30:53;4.07;;;3.30;;
46116;SDS011;32591;48.102;11.772;2023-06-24T14:33:20;4.97;;;3.58;;
46116;SDS011;32591;48.102;11.772;2023-06-24T14:35:47;6.47;;;3.63;;
46116;SDS011;32591;48.102;11.772;2023-06-24T14:38:14;5.22;;;3.70;;
46116;SDS011;32591;48.102;11.772;2023-06-24T14:40:41;16.50;;;4.10;;
46116;SDS011;32591;48.102;11.772;2023-06-24T14:43:08;4.53;;;3.38;;
46116;SDS011;32591;48.102;11.772;2023-06-24T14:45:37;5.47;;;3.30;;
46116;SDS011;32591;48.102;11.772;2023-06-24T14:48:04;4.28;;;3.50;;
46116;SDS011;32591;48.102;11.772;2023-06-24T14:50:31;5.07;;;3.58;;